sensor_id;sensor_type;location;lat;lon;timestamp;P1;durP1;ratioP1;P2;durP2;ratioP2
30533;SDS011;17318;52.390;9.754;2022-10-31T00:01:15;14.38;;;5.97;;
30533;SDS011;17318;52.390;9.754;2022-10-31T00:03:49;13.13;;;5.57;;
30533;SDS011;17318;52.390;9.754;2022-10-31T00:06:15;14.10;;;6.07;;
30533;SDS011;17318;52.390;9.754;2022-10-31T00:08:43;19.58;;;6.25;;
30533;SDS011;17318;52.390;9.754;2022-10-31T00:11:10;14.43;;;5.60;;
30533;SDS011;17318;52.390;9.754;2022-10-31T00:13:35;15.82;;;6.82;;
30533;SDS011;17318;52.390;9.754;2022-10-31T00:16:01;13.57;;;4.72;;
30533;SDS011;17318;52.390;9.754;2022-10-31T00:18:27;13.10;;;5.20;;
30533;SDS011;17318;52.390;9.754;2022-10-31T00:21:02;16.17;;;5.97;;
30533;SDS011;17318;52.390;9.754;2022-10-31T00:23:28;11.63;;;5.65;;
30533;SDS011;17318;52.390;9.754;2022-10-31T00:25:59;16.52;;;5.70;;
30533;SDS011;17318;52.390;9.754;2022-10-31T00:28:29;18.17;;;5.90;;
30533;SDS011;17318;52.390;9.754;2022-10-31T00:30:58;14.63;;;5.75;;
30533;SDS011;17318;52.390;9.754;2022-10-31T00:33:27;19.88;;;6.80;;
30533;SDS011;17318;52.390;9.754;2022-10-31T00:35:53;18.25;;;6.65;;
30533;SDS011;17318;52.390;9.754;2022-10-31T00:38:19;19.17;;;6.68;;
30533;SDS011;17318;52.390;9.754;2022-10-31T00:40:45;20.02;;;7.53;;
30533;SDS011;17318;52.390;9.754;2022-10-31T00:43:11;19.58;;;7.47;;
30533;SDS011;17318;52.390;9.754;2022-10-31T00:45:36;25.38;;;7.78;;
30533;SDS011;17318;52.390;9.754;2022-10-31T00:48:02;16.40;;;6.90;;
30533;SDS011;17318;52.390;9.754;2022-10-31T00:50:28;19.58;;;7.90;;
30533;SDS011;17318;52.390;9.754;2022-10-31T00:52:54;22.30;;;7.88;;
30533;SDS011;17318;52.390;9.754;2022-10-31T00:55:20;15.98;;;7.00;;
30533;SDS011;17318;52.390;9.754;2022-10-31T00:57:46;12.98;;;6.93;;
30533;SDS011;17318;52.390;9.754;2022-10-31T01:00:12;17.88;;;7.60;;
30533;SDS011;17318;52.390;9.754;2022-10-31T01:02:38;16.10;;;6.85;;
30533;SDS011;17318;52.390;9.754;2022-10-31T01:05:04;21.77;;;7.72;;
30533;SDS011;17318;52.390;9.754;2022-10-31T01:07:30;17.30;;;7.20;;
30533;SDS011;17318;52.390;9.754;2022-10-31T01:09:55;18.00;;;6.95;;
30533;SDS011;17318;52.390;9.754;2022-10-31T01:12:21;25.17;;;9.10;;
30533;SDS011;17318;52.390;9.754;2022-10-31T01:14:47;19.30;;;9.07;;
30533;SDS011;17318;52.390;9.754;2022-10-31T01:17:13;26.92;;;9.95;;
30533;SDS011;17318;52.390;9.754;2022-10-31T01:19:39;24.17;;;8.85;;
30533;SDS011;17318;52.390;9.754;2022-10-31T01:22:05;32.13;;;11.90;;
30533;SDS011;17318;52.390;9.754;2022-10-31T01:24:31;25.73;;;12.88;;
30533;SDS011;17318;52.390;9.754;2022-10-31T01:26:56;35.22;;;12.48;;
30533;SDS011;17318;52.390;9.754;2022-10-31T01:29:22;33.92;;;13.68;;
30533;SDS011;17318;52.390;9.754;2022-10-31T01:31:48;33.85;;;13.93;;
30533;SDS011;17318;52.390;9.754;2022-10-31T01:34:15;31.80;;;14.43;;
30533;SDS011;17318;52.390;9.754;2022-10-31T01:39:16;29.35;;;14.80;;
30533;SDS011;17318;52.390;9.754;2022-10-31T01:41:43;36.05;;;16.08;;
30533;SDS011;17318;52.390;9.754;2022-10-31T01:46:44;38.05;;;15.82;;
30533;SDS011;17318;52.390;9.754;2022-10-31T01:49:23;37.53;;;16.70;;
30533;SDS011;17318;52.390;9.754;2022-10-31T01:51:56;37.33;;;16.30;;
30533;SDS011;17318;52.390;9.754;2022-10-31T01:54:27;40.28;;;17.95;;
30533;SDS011;17318;52.390;9.754;2022-10-31T01:56:57;33.20;;;16.98;;
30533;SDS011;17318;52.390;9.754;2022-10-31T01:59:24;37.67;;;17.35;;
30533;SDS011;17318;52.390;9.754;2022-10-31T02:01:53;39.92;;;17.70;;
30533;SDS011;17318;52.390;9.754;2022-10-31T02:04:19;47.95;;;19.05;;
30533;SDS011;17318;52.390;9.754;2022-10-31T02:07:10;42.15;;;18.50;;
30533;SDS011;17318;52.390;9.754;2022-10-31T02:09:43;38.88;;;18.75;;
30533;SDS011;17318;52.390;9.754;2022-10-31T02:14:37;42.83;;;18.65;;
30533;SDS011;17318;52.390;9.754;2022-10-31T02:17:03;39.55;;;19.10;;
30533;SDS011;17318;52.390;9.754;2022-10-31T02:19:39;46.38;;;20.00;;
30533;SDS011;17318;52.390;9.754;2022-10-31T02:22:24;44.22;;;18.70;;
30533;SDS011;17318;52.390;9.754;2022-10-31T02:30:23;48.80;;;19.13;;
30533;SDS011;17318;52.390;9.754;2022-10-31T02:33:05;40.15;;;18.80;;
30533;SDS011;17318;52.390;9.754;2022-10-31T02:35:44;47.08;;;19.90;;
30533;SDS011;17318;52.390;9.754;2022-10-31T02:41:19;39.08;;;19.00;;
30533;SDS011;17318;52.390;9.754;2022-10-31T02:43:58;44.85;;;18.27;;
30533;SDS011;17318;52.390;9.754;2022-10-31T02:51:54;42.17;;;19.02;;
30533;SDS011;17318;52.390;9.754;2022-10-31T02:54:24;42.25;;;18.75;;
30533;SDS011;17318;52.390;9.754;2022-10-31T02:56:52;37.85;;;18.10;;
30533;SDS011;17318;52.390;9.754;2022-10-31T02:59:23;37.95;;;19.23;;
30533;SDS011;17318;52.390;9.754;2022-10-31T03:04:40;46.50;;;18.40;;
30533;SDS011;17318;52.390;9.754;2022-10-31T03:13:16;40.30;;;19.73;;
30533;SDS011;17318;52.390;9.754;2022-10-31T03:15:44;40.20;;;18.85;;
30533;SDS011;17318;52.390;9.754;2022-10-31T03:18:28;43.42;;;18.40;;
30533;SDS011;17318;52.390;9.754;2022-10-31T03:21:13;40.78;;;19.13;;
30533;SDS011;17318;52.390;9.754;2022-10-31T03:23:44;40.45;;;17.90;;
30533;SDS011;17318;52.390;9.754;2022-10-31T03:26:11;38.03;;;17.23;;
30533;SDS011;17318;52.390;9.754;2022-10-31T03:28:46;43.90;;;18.00;;
30533;SDS011;17318;52.390;9.754;2022-10-31T03:31:22;41.40;;;17.65;;
30533;SDS011;17318;52.390;9.754;2022-10-31T03:33:52;41.65;;;16.70;;
30533;SDS011;17318;52.390;9.754;2022-10-31T03:36:21;41.13;;;17.55;;
30533;SDS011;17318;52.390;9.754;2022-10-31T03:38:47;41.85;;;17.52;;
30533;SDS011;17318;52.390;9.754;2022-10-31T03:41:14;40.67;;;16.45;;
30533;SDS011;17318;52.390;9.754;2022-10-31T03:43:55;35.70;;;17.27;;
30533;SDS011;17318;52.390;9.754;2022-10-31T03:46:25;34.90;;;17.63;;
30533;SDS011;17318;52.390;9.754;2022-10-31T03:48:52;42.13;;;19.48;;
30533;SDS011;17318;52.390;9.754;2022-10-31T03:53:45;46.47;;;18.38;;
30533;SDS011;17318;52.390;9.754;2022-10-31T03:59:13;35.28;;;16.85;;
30533;SDS011;17318;52.390;9.754;2022-10-31T04:01:44;37.28;;;17.00;;
30533;SDS011;17318;52.390;9.754;2022-10-31T04:04:14;44.10;;;18.60;;
30533;SDS011;17318;52.390;9.754;2022-10-31T04:06:40;41.60;;;18.60;;
30533;SDS011;17318;52.390;9.754;2022-10-31T04:09:08;41.03;;;18.30;;
30533;SDS011;17318;52.390;9.754;2022-10-31T04:11:36;39.95;;;18.25;;
30533;SDS011;17318;52.390;9.754;2022-10-31T04:14:05;43.47;;;19.27;;
30533;SDS011;17318;52.390;9.754;2022-10-31T04:16:33;38.67;;;19.02;;
30533;SDS011;17318;52.390;9.754;2022-10-31T04:18:59;43.55;;;19.23;;
30533;SDS011;17318;52.390;9.754;2022-10-31T04:21:28;48.03;;;20.00;;
30533;SDS011;17318;52.390;9.754;2022-10-31T04:23:54;36.35;;;17.75;;
30533;SDS011;17318;52.390;9.754;2022-10-31T04:26:21;34.88;;;17.52;;
30533;SDS011;17318;52.390;9.754;2022-10-31T04:28:47;38.70;;;18.13;;
30533;SDS011;17318;52.390;9.754;2022-10-31T04:31:13;43.58;;;18.13;;
30533;SDS011;17318;52.390;9.754;2022-10-31T04:33:39;37.88;;;18.88;;
30533;SDS011;17318;52.390;9.754;2022-10-31T04:36:05;43.97;;;18.38;;
30533;SDS011;17318;52.390;9.754;2022-10-31T04:38:31;38.17;;;17.90;;
30533;SDS011;17318;52.390;9.754;2022-10-31T04:40:56;40.33;;;18.55;;
30533;SDS011;17318;52.390;9.754;2022-10-31T04:43:22;41.40;;;18.48;;
30533;SDS011;17318;52.390;9.754;2022-10-31T04:45:48;34.60;;;17.90;;
30533;SDS011;17318;52.390;9.754;2022-10-31T04:48:13;32.13;;;16.92;;
30533;SDS011;17318;52.390;9.754;2022-10-31T04:50:39;34.03;;;17.90;;
30533;SDS011;17318;52.390;9.754;2022-10-31T04:53:05;33.85;;;17.95;;
30533;SDS011;17318;52.390;9.754;2022-10-31T04:55:31;38.83;;;17.23;;
30533;SDS011;17318;52.390;9.754;2022-10-31T04:57:57;39.25;;;18.02;;
30533;SDS011;17318;52.390;9.754;2022-10-31T05:00:23;44.53;;;18.75;;
30533;SDS011;17318;52.390;9.754;2022-10-31T05:02:50;36.40;;;17.80;;
30533;SDS011;17318;52.390;9.754;2022-10-31T05:05:21;34.10;;;18.25;;
30533;SDS011;17318;52.390;9.754;2022-10-31T05:07:54;38.20;;;17.85;;
30533;SDS011;17318;52.390;9.754;2022-10-31T05:10:21;41.20;;;18.50;;
30533;SDS011;17318;52.390;9.754;2022-10-31T05:12:53;40.97;;;19.30;;
30533;SDS011;17318;52.390;9.754;2022-10-31T05:15:20;37.28;;;18.17;;
30533;SDS011;17318;52.390;9.754;2022-10-31T05:17:47;47.13;;;19.85;;
30533;SDS011;17318;52.390;9.754;2022-10-31T05:20:15;42.43;;;18.47;;
30533;SDS011;17318;52.390;9.754;2022-10-31T05:22:46;42.95;;;19.35;;
30533;SDS011;17318;52.390;9.754;2022-10-31T05:25:20;87.78;;;44.75;;
30533;SDS011;17318;52.390;9.754;2022-10-31T05:27:48;48.97;;;24.50;;
30533;SDS011;17318;52.390;9.754;2022-10-31T05:30:16;39.17;;;18.67;;
30533;SDS011;17318;52.390;9.754;2022-10-31T05:32:46;40.65;;;18.08;;
30533;SDS011;17318;52.390;9.754;2022-10-31T05:35:13;39.90;;;20.58;;
30533;SDS011;17318;52.390;9.754;2022-10-31T05:37:52;38.95;;;18.02;;
30533;SDS011;17318;52.390;9.754;2022-10-31T05:40:18;42.40;;;19.45;;
30533;SDS011;17318;52.390;9.754;2022-10-31T05:42:45;38.35;;;18.25;;
30533;SDS011;17318;52.390;9.754;2022-10-31T05:45:13;36.47;;;17.92;;
30533;SDS011;17318;52.390;9.754;2022-10-31T05:47:41;43.55;;;18.90;;
30533;SDS011;17318;52.390;9.754;2022-10-31T05:50:07;36.97;;;19.13;;
30533;SDS011;17318;52.390;9.754;2022-10-31T05:52:34;35.20;;;18.05;;
30533;SDS011;17318;52.390;9.754;2022-10-31T05:55:00;48.22;;;20.23;;
30533;SDS011;17318;52.390;9.754;2022-10-31T05:57:26;38.85;;;19.33;;
30533;SDS011;17318;52.390;9.754;2022-10-31T05:59:52;45.30;;;19.88;;
30533;SDS011;17318;52.390;9.754;2022-10-31T06:02:21;38.45;;;19.02;;
30533;SDS011;17318;52.390;9.754;2022-10-31T06:04:47;39.25;;;19.08;;
30533;SDS011;17318;52.390;9.754;2022-10-31T06:07:13;40.10;;;18.42;;
30533;SDS011;17318;52.390;9.754;2022-10-31T06:09:38;37.55;;;17.98;;
30533;SDS011;17318;52.390;9.754;2022-10-31T06:12:04;35.55;;;17.50;;
30533;SDS011;17318;52.390;9.754;2022-10-31T06:14:30;45.22;;;18.10;;
30533;SDS011;17318;52.390;9.754;2022-10-31T06:16:55;41.63;;;17.50;;
30533;SDS011;17318;52.390;9.754;2022-10-31T06:19:21;37.17;;;17.48;;
30533;SDS011;17318;52.390;9.754;2022-10-31T06:21:47;33.92;;;17.13;;
30533;SDS011;17318;52.390;9.754;2022-10-31T06:24:12;42.25;;;18.95;;
30533;SDS011;17318;52.390;9.754;2022-10-31T06:26:39;36.53;;;18.08;;
30533;SDS011;17318;52.390;9.754;2022-10-31T06:29:06;38.63;;;17.48;;
30533;SDS011;17318;52.390;9.754;2022-10-31T06:31:31;39.13;;;18.35;;
30533;SDS011;17318;52.390;9.754;2022-10-31T06:33:57;37.90;;;17.27;;
30533;SDS011;17318;52.390;9.754;2022-10-31T06:36:22;35.72;;;17.30;;
30533;SDS011;17318;52.390;9.754;2022-10-31T06:38:48;37.17;;;18.80;;
30533;SDS011;17318;52.390;9.754;2022-10-31T06:41:14;35.80;;;17.67;;
30533;SDS011;17318;52.390;9.754;2022-10-31T06:43:39;37.28;;;17.83;;
30533;SDS011;17318;52.390;9.754;2022-10-31T06:46:05;30.30;;;16.63;;
30533;SDS011;17318;52.390;9.754;2022-10-31T06:48:31;37.92;;;17.80;;
30533;SDS011;17318;52.390;9.754;2022-10-31T06:51:00;36.63;;;17.42;;
30533;SDS011;17318;52.390;9.754;2022-10-31T06:53:26;36.83;;;17.33;;
30533;SDS011;17318;52.390;9.754;2022-10-31T06:55:57;42.70;;;18.17;;
30533;SDS011;17318;52.390;9.754;2022-10-31T06:58:23;35.42;;;16.27;;
30533;SDS011;17318;52.390;9.754;2022-10-31T07:00:49;38.15;;;18.35;;
30533;SDS011;17318;52.390;9.754;2022-10-31T07:03:15;34.30;;;16.23;;
30533;SDS011;17318;52.390;9.754;2022-10-31T07:05:41;37.35;;;16.70;;
30533;SDS011;17318;52.390;9.754;2022-10-31T07:08:08;40.10;;;16.98;;
30533;SDS011;17318;52.390;9.754;2022-10-31T07:10:37;33.05;;;16.38;;
30533;SDS011;17318;52.390;9.754;2022-10-31T07:13:04;34.08;;;16.67;;
30533;SDS011;17318;52.390;9.754;2022-10-31T07:15:35;44.60;;;17.70;;
30533;SDS011;17318;52.390;9.754;2022-10-31T07:18:02;34.70;;;16.45;;
30533;SDS011;17318;52.390;9.754;2022-10-31T07:20:29;39.58;;;16.60;;
30533;SDS011;17318;52.390;9.754;2022-10-31T07:22:56;35.15;;;17.35;;
30533;SDS011;17318;52.390;9.754;2022-10-31T07:25:22;31.55;;;17.30;;
30533;SDS011;17318;52.390;9.754;2022-10-31T07:27:49;35.50;;;16.20;;
30533;SDS011;17318;52.390;9.754;2022-10-31T07:30:15;37.10;;;16.98;;
30533;SDS011;17318;52.390;9.754;2022-10-31T07:35:11;48.23;;;17.10;;
30533;SDS011;17318;52.390;9.754;2022-10-31T07:40:04;31.98;;;15.55;;
30533;SDS011;17318;52.390;9.754;2022-10-31T07:42:38;33.17;;;15.68;;
30533;SDS011;17318;52.390;9.754;2022-10-31T07:45:05;39.03;;;17.20;;
30533;SDS011;17318;52.390;9.754;2022-10-31T07:47:42;29.55;;;15.95;;
30533;SDS011;17318;52.390;9.754;2022-10-31T07:50:08;37.28;;;17.83;;
30533;SDS011;17318;52.390;9.754;2022-10-31T07:52:35;30.13;;;15.27;;
30533;SDS011;17318;52.390;9.754;2022-10-31T07:55:02;35.92;;;16.08;;
30533;SDS011;17318;52.390;9.754;2022-10-31T07:57:29;31.13;;;15.75;;
30533;SDS011;17318;52.390;9.754;2022-10-31T07:59:54;36.92;;;16.35;;
30533;SDS011;17318;52.390;9.754;2022-10-31T08:02:20;30.50;;;15.65;;
30533;SDS011;17318;52.390;9.754;2022-10-31T08:04:46;31.98;;;16.38;;
30533;SDS011;17318;52.390;9.754;2022-10-31T08:07:11;40.35;;;16.70;;
30533;SDS011;17318;52.390;9.754;2022-10-31T08:09:37;36.00;;;16.40;;
30533;SDS011;17318;52.390;9.754;2022-10-31T08:12:03;33.72;;;16.60;;
30533;SDS011;17318;52.390;9.754;2022-10-31T08:14:29;28.67;;;15.32;;
30533;SDS011;17318;52.390;9.754;2022-10-31T08:16:54;34.35;;;15.45;;
30533;SDS011;17318;52.390;9.754;2022-10-31T08:19:20;28.88;;;15.23;;
30533;SDS011;17318;52.390;9.754;2022-10-31T08:21:46;30.35;;;15.40;;
30533;SDS011;17318;52.390;9.754;2022-10-31T08:24:15;31.17;;;15.15;;
30533;SDS011;17318;52.390;9.754;2022-10-31T08:26:40;32.90;;;15.82;;
30533;SDS011;17318;52.390;9.754;2022-10-31T08:29:06;28.67;;;14.70;;
30533;SDS011;17318;52.390;9.754;2022-10-31T08:31:32;34.40;;;14.90;;
30533;SDS011;17318;52.390;9.754;2022-10-31T08:33:58;34.63;;;15.65;;
30533;SDS011;17318;52.390;9.754;2022-10-31T08:36:23;33.83;;;15.55;;
30533;SDS011;17318;52.390;9.754;2022-10-31T08:38:49;37.47;;;15.57;;
30533;SDS011;17318;52.390;9.754;2022-10-31T08:41:15;30.80;;;15.05;;
30533;SDS011;17318;52.390;9.754;2022-10-31T08:43:40;33.90;;;15.10;;
30533;SDS011;17318;52.390;9.754;2022-10-31T08:46:06;34.13;;;14.90;;
30533;SDS011;17318;52.390;9.754;2022-10-31T08:48:32;38.67;;;19.25;;
30533;SDS011;17318;52.390;9.754;2022-10-31T08:50:58;41.72;;;18.63;;
30533;SDS011;17318;52.390;9.754;2022-10-31T08:53:24;35.47;;;15.82;;
30533;SDS011;17318;52.390;9.754;2022-10-31T08:55:53;32.13;;;15.15;;
30533;SDS011;17318;52.390;9.754;2022-10-31T08:58:20;31.83;;;13.93;;
30533;SDS011;17318;52.390;9.754;2022-10-31T09:00:47;33.75;;;14.75;;
30533;SDS011;17318;52.390;9.754;2022-10-31T09:03:15;38.25;;;14.40;;
30533;SDS011;17318;52.390;9.754;2022-10-31T09:05:45;31.33;;;14.90;;
30533;SDS011;17318;52.390;9.754;2022-10-31T09:08:11;33.45;;;14.75;;
30533;SDS011;17318;52.390;9.754;2022-10-31T09:10:38;37.42;;;16.42;;
30533;SDS011;17318;52.390;9.754;2022-10-31T09:13:15;39.37;;;16.87;;
30533;SDS011;17318;52.390;9.754;2022-10-31T09:15:43;32.88;;;16.20;;
30533;SDS011;17318;52.390;9.754;2022-10-31T09:18:10;36.15;;;16.58;;
30533;SDS011;17318;52.390;9.754;2022-10-31T09:20:37;39.00;;;16.27;;
30533;SDS011;17318;52.390;9.754;2022-10-31T09:23:05;37.40;;;18.05;;
30533;SDS011;17318;52.390;9.754;2022-10-31T09:25:35;34.00;;;16.38;;
30533;SDS011;17318;52.390;9.754;2022-10-31T09:28:02;40.05;;;17.33;;
30533;SDS011;17318;52.390;9.754;2022-10-31T09:30:31;31.48;;;16.25;;
30533;SDS011;17318;52.390;9.754;2022-10-31T09:32:58;41.17;;;16.67;;
30533;SDS011;17318;52.390;9.754;2022-10-31T09:35:26;32.20;;;15.40;;
30533;SDS011;17318;52.390;9.754;2022-10-31T09:40:30;36.00;;;15.07;;
30533;SDS011;17318;52.390;9.754;2022-10-31T09:51:00;35.90;;;15.20;;
30533;SDS011;17318;52.390;9.754;2022-10-31T09:53:36;31.20;;;13.40;;
30533;SDS011;17318;52.390;9.754;2022-10-31T09:56:22;34.28;;;13.00;;
30533;SDS011;17318;52.390;9.754;2022-10-31T09:58:51;34.28;;;12.65;;
30533;SDS011;17318;52.390;9.754;2022-10-31T10:03:57;27.55;;;13.27;;
30533;SDS011;17318;52.390;9.754;2022-10-31T10:06:31;30.27;;;13.75;;
30533;SDS011;17318;52.390;9.754;2022-10-31T10:09:00;39.08;;;12.52;;
30533;SDS011;17318;52.390;9.754;2022-10-31T10:19:46;26.15;;;10.93;;
30533;SDS011;17318;52.390;9.754;2022-10-31T10:25:29;31.48;;;11.93;;
30533;SDS011;17318;52.390;9.754;2022-10-31T10:30:46;32.97;;;12.32;;
30533;SDS011;17318;52.390;9.754;2022-10-31T10:36:22;29.05;;;11.27;;
30533;SDS011;17318;52.390;9.754;2022-10-31T10:39:00;27.33;;;11.50;;
30533;SDS011;17318;52.390;9.754;2022-10-31T10:41:32;28.02;;;11.00;;
30533;SDS011;17318;52.390;9.754;2022-10-31T10:43:58;25.90;;;10.93;;
30533;SDS011;17318;52.390;9.754;2022-10-31T10:55:11;20.65;;;10.13;;
30533;SDS011;17318;52.390;9.754;2022-10-31T10:57:58;28.35;;;12.35;;
30533;SDS011;17318;52.390;9.754;2022-10-31T11:00:30;23.73;;;11.25;;
30533;SDS011;17318;52.390;9.754;2022-10-31T11:03:04;28.50;;;10.73;;
30533;SDS011;17318;52.390;9.754;2022-10-31T11:08:04;24.23;;;11.25;;
30533;SDS011;17318;52.390;9.754;2022-10-31T11:10:30;24.15;;;11.00;;
30533;SDS011;17318;52.390;9.754;2022-10-31T11:13:05;24.50;;;10.48;;
30533;SDS011;17318;52.390;9.754;2022-10-31T11:15:33;22.85;;;11.27;;
30533;SDS011;17318;52.390;9.754;2022-10-31T11:18:19;27.80;;;10.80;;
30533;SDS011;17318;52.390;9.754;2022-10-31T11:20:57;24.17;;;10.43;;
30533;SDS011;17318;52.390;9.754;2022-10-31T11:23:25;23.23;;;10.48;;
30533;SDS011;17318;52.390;9.754;2022-10-31T11:28:19;24.85;;;10.52;;
30533;SDS011;17318;52.390;9.754;2022-10-31T11:30:47;25.70;;;9.40;;
30533;SDS011;17318;52.390;9.754;2022-10-31T11:33:18;21.05;;;8.82;;
30533;SDS011;17318;52.390;9.754;2022-10-31T11:35:59;23.30;;;10.50;;
30533;SDS011;17318;52.390;9.754;2022-10-31T11:43:37;22.23;;;8.15;;
30533;SDS011;17318;52.390;9.754;2022-10-31T11:46:11;17.90;;;7.45;;
30533;SDS011;17318;52.390;9.754;2022-10-31T11:48:46;21.88;;;8.75;;
30533;SDS011;17318;52.390;9.754;2022-10-31T11:51:19;19.48;;;8.45;;
30533;SDS011;17318;52.390;9.754;2022-10-31T11:53:54;23.13;;;8.07;;
30533;SDS011;17318;52.390;9.754;2022-10-31T11:56:22;24.95;;;7.50;;
30533;SDS011;17318;52.390;9.754;2022-10-31T11:58:55;20.20;;;7.20;;
30533;SDS011;17318;52.390;9.754;2022-10-31T12:01:29;25.08;;;6.88;;
30533;SDS011;17318;52.390;9.754;2022-10-31T12:04:07;14.32;;;6.93;;
30533;SDS011;17318;52.390;9.754;2022-10-31T12:06:35;21.20;;;7.25;;
30533;SDS011;17318;52.390;9.754;2022-10-31T12:09:23;18.50;;;6.68;;
30533;SDS011;17318;52.390;9.754;2022-10-31T12:23:55;16.85;;;6.47;;
30533;SDS011;17318;52.390;9.754;2022-10-31T12:34:45;18.33;;;7.47;;
30533;SDS011;17318;52.390;9.754;2022-10-31T12:37:27;18.25;;;6.82;;
30533;SDS011;17318;52.390;9.754;2022-10-31T12:48:16;16.52;;;7.43;;
30533;SDS011;17318;52.390;9.754;2022-10-31T12:51:24;18.10;;;8.35;;
30533;SDS011;17318;52.390;9.754;2022-10-31T12:54:05;21.42;;;9.60;;
30533;SDS011;17318;52.390;9.754;2022-10-31T13:04:58;28.10;;;10.48;;
30533;SDS011;17318;52.390;9.754;2022-10-31T13:07:41;28.33;;;10.20;;
30533;SDS011;17318;52.390;9.754;2022-10-31T13:12:38;22.17;;;10.68;;
30533;SDS011;17318;52.390;9.754;2022-10-31T13:15:12;26.48;;;10.20;;
30533;SDS011;17318;52.390;9.754;2022-10-31T13:17:47;32.00;;;10.57;;
30533;SDS011;17318;52.390;9.754;2022-10-31T13:20:49;18.77;;;8.50;;
30533;SDS011;17318;52.390;9.754;2022-10-31T13:25:39;28.05;;;9.55;;
30533;SDS011;17318;52.390;9.754;2022-10-31T13:31:04;21.23;;;8.75;;
30533;SDS011;17318;52.390;9.754;2022-10-31T13:33:35;19.35;;;7.63;;
30533;SDS011;17318;52.390;9.754;2022-10-31T13:36:10;16.45;;;7.18;;
30533;SDS011;17318;52.390;9.754;2022-10-31T13:41:42;18.20;;;8.10;;
30533;SDS011;17318;52.390;9.754;2022-10-31T13:44:22;25.05;;;8.80;;
30533;SDS011;17318;52.390;9.754;2022-10-31T13:46:55;26.50;;;9.33;;
30533;SDS011;17318;52.390;9.754;2022-10-31T13:54:35;24.30;;;9.88;;
30533;SDS011;17318;52.390;9.754;2022-10-31T13:57:01;24.98;;;9.95;;
30533;SDS011;17318;52.390;9.754;2022-10-31T13:59:28;23.00;;;10.25;;
30533;SDS011;17318;52.390;9.754;2022-10-31T14:02:00;28.80;;;11.35;;
30533;SDS011;17318;52.390;9.754;2022-10-31T14:04:44;27.67;;;10.18;;
30533;SDS011;17318;52.390;9.754;2022-10-31T14:12:27;26.20;;;11.70;;
30533;SDS011;17318;52.390;9.754;2022-10-31T14:15:03;29.55;;;11.95;;
30533;SDS011;17318;52.390;9.754;2022-10-31T14:22:39;38.53;;;15.57;;
30533;SDS011;17318;52.390;9.754;2022-10-31T14:25:24;35.83;;;15.05;;
30533;SDS011;17318;52.390;9.754;2022-10-31T14:27:58;38.00;;;14.98;;
30533;SDS011;17318;52.390;9.754;2022-10-31T14:30:26;29.33;;;13.75;;
30533;SDS011;17318;52.390;9.754;2022-10-31T14:32:57;35.10;;;16.55;;
30533;SDS011;17318;52.390;9.754;2022-10-31T14:52:12;35.88;;;15.77;;
30533;SDS011;17318;52.390;9.754;2022-10-31T14:54:42;36.88;;;15.80;;
30533;SDS011;17318;52.390;9.754;2022-10-31T14:59:52;39.67;;;15.68;;
30533;SDS011;17318;52.390;9.754;2022-10-31T15:02:24;34.65;;;15.85;;
30533;SDS011;17318;52.390;9.754;2022-10-31T15:04:55;30.58;;;16.25;;
30533;SDS011;17318;52.390;9.754;2022-10-31T15:07:24;32.33;;;14.80;;
30533;SDS011;17318;52.390;9.754;2022-10-31T15:09:55;34.85;;;16.85;;
30533;SDS011;17318;52.390;9.754;2022-10-31T15:12:29;39.30;;;16.42;;
30533;SDS011;17318;52.390;9.754;2022-10-31T15:14:56;44.72;;;16.77;;
30533;SDS011;17318;52.390;9.754;2022-10-31T15:17:23;35.17;;;17.33;;
30533;SDS011;17318;52.390;9.754;2022-10-31T15:19:51;35.45;;;16.42;;
30533;SDS011;17318;52.390;9.754;2022-10-31T15:22:19;36.47;;;15.95;;
30533;SDS011;17318;52.390;9.754;2022-10-31T15:24:48;34.25;;;15.75;;
30533;SDS011;17318;52.390;9.754;2022-10-31T15:27:20;38.97;;;15.75;;
30533;SDS011;17318;52.390;9.754;2022-10-31T15:29:51;35.03;;;15.38;;
30533;SDS011;17318;52.390;9.754;2022-10-31T15:32:24;38.85;;;15.65;;
30533;SDS011;17318;52.390;9.754;2022-10-31T15:34:52;30.38;;;15.52;;
30533;SDS011;17318;52.390;9.754;2022-10-31T15:37:20;42.63;;;16.73;;
30533;SDS011;17318;52.390;9.754;2022-10-31T15:39:47;30.75;;;15.90;;
30533;SDS011;17318;52.390;9.754;2022-10-31T15:42:35;32.55;;;13.65;;
30533;SDS011;17318;52.390;9.754;2022-10-31T15:47:36;33.55;;;14.70;;
30533;SDS011;17318;52.390;9.754;2022-10-31T15:50:03;29.73;;;14.63;;
30533;SDS011;17318;52.390;9.754;2022-10-31T15:52:44;35.92;;;14.80;;
30533;SDS011;17318;52.390;9.754;2022-10-31T15:55:28;37.85;;;16.88;;
30533;SDS011;17318;52.390;9.754;2022-10-31T15:58:10;37.90;;;16.48;;
30533;SDS011;17318;52.390;9.754;2022-10-31T16:00:38;37.70;;;15.38;;
30533;SDS011;17318;52.390;9.754;2022-10-31T16:03:05;39.38;;;14.52;;
30533;SDS011;17318;52.390;9.754;2022-10-31T16:05:47;35.15;;;15.55;;
30533;SDS011;17318;52.390;9.754;2022-10-31T16:08:24;30.63;;;14.73;;
30533;SDS011;17318;52.390;9.754;2022-10-31T16:10:53;28.75;;;14.57;;
30533;SDS011;17318;52.390;9.754;2022-10-31T16:14:02;34.08;;;15.65;;
30533;SDS011;17318;52.390;9.754;2022-10-31T16:16:44;35.63;;;16.15;;
30533;SDS011;17318;52.390;9.754;2022-10-31T16:19:35;37.70;;;15.43;;
30533;SDS011;17318;52.390;9.754;2022-10-31T16:22:05;39.50;;;16.30;;
30533;SDS011;17318;52.390;9.754;2022-10-31T16:24:44;40.90;;;16.35;;
30533;SDS011;17318;52.390;9.754;2022-10-31T16:27:27;41.45;;;15.85;;
30533;SDS011;17318;52.390;9.754;2022-10-31T16:29:55;33.80;;;15.10;;
30533;SDS011;17318;52.390;9.754;2022-10-31T16:37:40;32.95;;;16.35;;
30533;SDS011;17318;52.390;9.754;2022-10-31T16:40:10;32.92;;;15.52;;
30533;SDS011;17318;52.390;9.754;2022-10-31T16:42:38;36.58;;;15.82;;
30533;SDS011;17318;52.390;9.754;2022-10-31T16:45:04;42.17;;;15.40;;
30533;SDS011;17318;52.390;9.754;2022-10-31T16:47:31;35.57;;;16.13;;
30533;SDS011;17318;52.390;9.754;2022-10-31T16:49:56;34.22;;;15.30;;
30533;SDS011;17318;52.390;9.754;2022-10-31T16:52:25;35.72;;;16.70;;
30533;SDS011;17318;52.390;9.754;2022-10-31T16:54:51;41.58;;;16.67;;
30533;SDS011;17318;52.390;9.754;2022-10-31T16:57:17;34.47;;;15.90;;
30533;SDS011;17318;52.390;9.754;2022-10-31T16:59:52;31.50;;;15.38;;
30533;SDS011;17318;52.390;9.754;2022-10-31T17:02:20;37.05;;;14.40;;
30533;SDS011;17318;52.390;9.754;2022-10-31T17:04:46;33.67;;;14.23;;
30533;SDS011;17318;52.390;9.754;2022-10-31T17:07:12;33.55;;;14.80;;
30533;SDS011;17318;52.390;9.754;2022-10-31T17:09:38;31.70;;;13.93;;
30533;SDS011;17318;52.390;9.754;2022-10-31T17:12:04;32.75;;;14.85;;
30533;SDS011;17318;52.390;9.754;2022-10-31T17:14:31;37.47;;;14.75;;
30533;SDS011;17318;52.390;9.754;2022-10-31T17:16:58;35.90;;;14.55;;
30533;SDS011;17318;52.390;9.754;2022-10-31T17:19:24;33.63;;;15.02;;
30533;SDS011;17318;52.390;9.754;2022-10-31T17:21:50;31.58;;;14.05;;
30533;SDS011;17318;52.390;9.754;2022-10-31T17:24:15;28.15;;;13.95;;
30533;SDS011;17318;52.390;9.754;2022-10-31T17:26:42;31.45;;;14.05;;
30533;SDS011;17318;52.390;9.754;2022-10-31T17:29:07;36.65;;;14.45;;
30533;SDS011;17318;52.390;9.754;2022-10-31T17:31:34;37.95;;;15.27;;
30533;SDS011;17318;52.390;9.754;2022-10-31T17:34:00;37.40;;;14.87;;
30533;SDS011;17318;52.390;9.754;2022-10-31T17:36:29;31.77;;;14.55;;
30533;SDS011;17318;52.390;9.754;2022-10-31T17:38:55;34.88;;;14.82;;